Time;durP1;ratioP1;P1;durP2;ratioP2;P2;SDS_P1;SDS_P2;PMS_P1;PMS_P2;Temp;Humidity;BMP_temperature;BMP_pressure;BME280_temperature;BME280_humidity;BME280_pressure;Samples;Min_cycle;Max_cycle;Signal;HPM_P1;HPM_P2
2022/08/20 00:00:47;;;;;;;8.45;6.93;;;;;;;21.21;69.55;101268.63;6034188;29;20551;-70
2022/08/20 00:04:08;;;;;;;8.95;8.20;;;;;;;21.13;69.24;101272.31;6031855;29;20237;-70
2022/08/20 00:07:29;;;;;;;6.70;6.20;;;;;;;21.12;68.93;101270.66;6035530;29;20234;-70
2022/08/20 00:10:52;;;;;;;7.82;6.90;;;;;;;21.18;68.38;101271.75;6035525;29;20321;-70
2022/08/20 00:14:14;;;;;;;8.13;7.10;;;;;;;21.14;67.75;101271.31;6032802;29;20238;-70
2022/08/20 00:17:36;;;;;;;6.65;6.15;;;;;;;21.13;67.52;101266.84;6031996;29;20234;-70
2022/08/20 00:20:59;;;;;;;6.57;5.97;;;;;;;21.16;67.44;101271.09;6031344;29;20262;-70
2022/08/20 00:24:20;;;;;;;6.75;6.07;;;;;;;21.17;66.97;101268.16;6030772;29;20237;-69
2022/08/20 00:27:41;;;;;;;7.03;6.45;;;;;;;21.26;67.03;101271.63;6029860;29;20322;-70
2022/08/20 00:31:05;;;;;;;5.72;5.22;;;;;;;21.20;66.51;101265.03;6031399;29;20257;-70
2022/08/20 00:34:27;;;;;;;6.05;5.45;;;;;;;21.19;67.15;101268.84;6038434;29;20234;-70
2022/08/20 00:37:48;;;;;;;4.88;4.43;;;;;;;21.16;67.06;101276.56;6039919;29;20233;-70
2022/08/20 00:41:12;;;;;;;5.50;5.07;;;;;;;21.17;66.88;101276.38;6032259;29;20708;-69
2022/08/20 00:44:34;;;;;;;4.88;4.28;;;;;;;21.13;65.86;101277.00;6036932;29;20356;-70
2022/08/20 00:47:57;;;;;;;4.82;4.35;;;;;;;21.15;66.21;101272.16;6036422;29;20253;-69
2022/08/20 00:51:26;;;;;;;4.72;4.28;;;;;;;21.16;66.26;101266.47;6033276;29;20226;-69
2022/08/20 00:54:51;;;;;;;5.32;4.82;;;;;;;21.14;66.00;101281.41;6037822;29;20244;-70
2022/08/20 00:58:12;;;;;;;5.35;4.85;;;;;;;21.11;64.78;101279.06;6034631;29;20225;-69
2022/08/20 01:01:34;;;;;;;4.75;4.45;;;;;;;21.08;65.46;101273.97;6032460;29;20242;-69
2022/08/20 01:04:57;;;;;;;4.90;4.57;;;;;;;21.13;65.60;101266.84;6036898;29;20520;-70
2022/08/20 01:08:22;;;;;;;4.55;4.18;;;;;;;21.16;65.34;101265.59;6038807;29;20234;-70
2022/08/20 01:11:43;;;;;;;4.10;3.80;;;;;;;21.16;65.41;101271.94;6034068;29;20827;-70
2022/08/20 01:15:07;;;;;;;4.50;4.07;;;;;;;21.14;65.18;101274.03;6035984;29;20237;-70
2022/08/20 01:18:28;;;;;;;4.88;4.38;;;;;;;21.12;65.79;101272.53;6034204;29;20234;-70
2022/08/20 01:21:51;;;;;;;4.70;4.30;;;;;;;21.04;66.24;101276.25;6022469;29;20592;-70
2022/08/20 01:25:19;;;;;;;4.75;4.35;;;;;;;21.00;65.59;101280.41;6035536;29;20318;-69
2022/08/20 01:28:44;;;;;;;4.55;4.15;;;;;;;20.95;66.18;101287.47;6036786;29;20585;-70
2022/08/20 01:32:06;;;;;;;4.22;3.92;;;;;;;20.95;66.13;101280.13;6030568;29;20238;-70
2022/08/20 01:35:28;;;;;;;4.60;4.30;;;;;;;20.93;65.90;101286.84;6032282;29;20714;-70
2022/08/20 01:38:49;;;;;;;5.57;5.07;;;;;;;20.89;66.50;101289.13;6032022;29;20573;-70
2022/08/20 01:42:14;;;;;;;6.88;6.38;;;;;;;20.84;66.25;101288.84;6019377;29;20238;-69
2022/08/20 01:45:38;;;;;;;7.20;6.60;;;;;;;20.88;66.53;101286.56;6028885;29;20267;-69
2022/08/20 01:49:06;;;;;;;7.20;6.63;;;;;;;20.83;66.45;101291.78;6032436;29;21120;-69
2022/08/20 01:52:36;;;;;;;7.85;7.05;;;;;;;20.79;66.63;101291.31;6033719;29;20268;-69
2022/08/20 01:55:57;;;;;;;9.95;6.28;;;;;;;20.85;66.92;101293.28;6035212;29;20237;-70
2022/08/20 01:59:18;;;;;;;7.88;7.18;;;;;;;20.85;66.58;101292.44;6035551;29;20679;-70
2022/08/20 02:02:41;;;;;;;7.90;7.13;;;;;;;20.74;67.12;101293.78;6031027;29;20241;-70
2022/08/20 02:06:02;;;;;;;6.68;6.07;;;;;;;20.77;67.40;101298.88;6030717;29;20226;-70
2022/08/20 02:09:23;;;;;;;8.00;7.30;;;;;;;20.74;67.16;101299.25;6029993;29;20694;-69
2022/08/20 02:12:44;;;;;;;6.68;6.07;;;;;;;20.85;67.25;101301.50;6047937;29;20770;-69
2022/08/20 02:16:05;;;;;;;7.03;6.43;;;;;;;20.85;66.88;101300.66;6030235;29;20238;-69
2022/08/20 02:19:33;;;;;;;6.72;6.13;;;;;;;20.91;66.82;101302.63;6037031;29;20238;-69
2022/08/20 02:22:57;;;;;;;6.35;5.75;;;;;;;20.95;66.86;101303.94;6032706;29;20242;-70
2022/08/20 02:26:19;;;;;;;6.20;5.60;;;;;;;20.85;67.04;101304.25;6034133;29;20269;-70
2022/08/20 02:29:40;;;;;;;6.78;5.88;;;;;;;20.78;66.88;101299.75;6034074;29;20608;-69
2022/08/20 02:33:03;;;;;;;6.10;5.60;;;;;;;20.77;67.09;101303.50;6036432;29;20238;-70
2022/08/20 02:36:26;;;;;;;5.55;5.15;;;;;;;20.80;67.68;101303.16;6034127;29;20242;-69
2022/08/20 02:39:47;;;;;;;4.15;3.85;;;;;;;20.86;67.47;101305.94;6035466;29;20237;-83
2022/08/20 02:43:08;;;;;;;8.93;5.57;;;;;;;20.98;67.15;101306.31;6029841;29;20241;-82
2022/08/20 02:46:29;;;;;;;5.45;4.65;;;;;;;20.94;67.29;101294.88;6034605;29;20687;-83
2022/08/20 02:49:50;;;;;;;6.18;5.57;;;;;;;20.94;67.03;101294.03;6038856;29;20237;-81
2022/08/20 02:53:13;;;;;;;5.78;5.22;;;;;;;20.87;67.11;101293.09;6036318;29;20238;-82
2022/08/20 02:56:34;;;;;;;5.82;5.43;;;;;;;20.68;68.02;101298.16;6035976;29;20230;-81
2022/08/20 02:59:56;;;;;;;5.22;4.82;;;;;;;20.68;68.33;101298.16;6037063;29;20647;-81
2022/08/20 03:03:21;;;;;;;6.05;5.45;;;;;;;20.77;68.40;101301.63;6036879;29;20233;-80
2022/08/20 03:06:42;;;;;;;8.30;7.55;;;;;;;20.77;68.31;101298.88;6033401;29;20240;-80
2022/08/20 03:10:05;;;;;;;8.60;7.72;;;;;;;20.70;69.38;101296.06;6031763;29;20612;-80
2022/08/20 03:13:26;;;;;;;10.10;8.27;;;;;;;20.79;69.56;101298.69;6030356;29;20234;-81
2022/08/20 03:16:47;;;;;;;9.52;8.63;;;;;;;20.70;70.04;101300.69;6035914;29;20527;-79
2022/08/20 03:20:10;;;;;;;9.18;8.38;;;;;;;20.69;70.62;101291.59;6033479;29;20234;-81
2022/08/20 03:23:32;;;;;;;12.60;11.23;;;;;;;20.35;72.52;101288.63;6029535;29;20254;-81
2022/08/20 03:26:55;;;;;;;14.65;13.15;;;;;;;20.35;73.17;101287.78;6034043;29;20238;-81
2022/08/20 03:30:18;;;;;;;13.63;12.32;;;;;;;20.39;73.17;101292.69;6031795;29;20242;-82
2022/08/20 03:33:39;;;;;;;14.13;12.88;;;;;;;20.40;73.54;101299.03;6031750;29;20237;-81
2022/08/20 03:37:00;;;;;;;14.02;12.75;;;;;;;20.46;73.37;101312.78;6038480;29;20229;-81
2022/08/20 03:40:24;;;;;;;13.75;12.52;;;;;;;20.64;72.98;101301.44;6035366;29;20238;-81
2022/08/20 03:43:47;;;;;;;12.95;11.73;;;;;;;20.79;72.64;101307.78;6036676;29;20234;-81
2022/08/20 03:47:08;;;;;;;17.20;15.70;;;;;;;20.49;74.51;101308.81;6037092;29;20233;-81
2022/08/20 03:50:31;;;;;;;16.52;14.80;;;;;;;20.56;74.51;101324.34;6036632;29;20324;-80
2022/08/20 03:53:52;;;;;;;16.10;13.98;;;;;;;20.55;74.34;101316.28;6037765;29;20230;-80
2022/08/20 03:57:14;;;;;;;14.82;13.63;;;;;;;20.56;74.54;101327.06;6036541;29;20231;-80
2022/08/20 04:00:40;;;;;;;13.68;12.52;;;;;;;20.66;73.85;101330.38;6033923;29;20575;-81
2022/08/20 04:04:01;;;;;;;14.30;12.90;;;;;;;20.60;75.05;101336.63;6045036;29;20253;-80
2022/08/20 04:07:26;;;;;;;15.10;13.85;;;;;;;20.60;75.32;101346.72;6037328;29;20805;-80
2022/08/20 04:10:49;;;;;;;12.45;11.38;;;;;;;20.69;74.92;101340.94;6033297;29;20226;-80
2022/08/20 04:14:11;;;;;;;11.57;10.57;;;;;;;20.83;74.85;101343.84;6033515;29;20230;-81
2022/08/20 04:17:34;;;;;;;13.50;12.20;;;;;;;20.71;75.09;101347.06;6028290;29;20790;-82
2022/08/20 04:20:55;;;;;;;12.90;11.73;;;;;;;20.68;75.19;101349.34;6034865;29;20245;-81
2022/08/20 04:24:16;;;;;;;10.73;9.65;;;;;;;20.67;75.48;101350.41;6034240;29;20269;-81
2022/08/20 04:27:38;;;;;;;10.32;9.30;;;;;;;20.80;74.98;101357.97;6033242;29;20620;-81
2022/08/20 04:31:00;;;;;;;12.50;10.35;;;;;;;20.75;75.36;101346.69;6028836;29;20234;-81
2022/08/20 04:34:23;;;;;;;13.07;10.55;;;;;;;20.48;76.50;101342.75;6034713;29;20226;-82
2022/08/20 04:37:45;;;;;;;11.73;10.75;;;;;;;20.56;76.13;101354.47;6034196;29;20324;-80
2022/08/20 04:41:06;;;;;;;10.93;9.93;;;;;;;20.61;76.23;101348.44;6034397;29;20609;-80
2022/08/20 04:44:27;;;;;;;13.05;11.75;;;;;;;20.44;76.88;101352.41;6034390;29;20238;-82
2022/08/20 04:47:49;;;;;;;13.63;12.52;;;;;;;20.31;77.61;101353.06;6034796;29;20234;-81
2022/08/20 04:51:13;;;;;;;13.32;12.05;;;;;;;20.48;76.80;101351.84;6033238;29;20800;-80
2022/08/20 04:54:34;;;;;;;14.18;12.80;;;;;;;20.45;76.79;101359.56;6032864;29;20324;-81
2022/08/20 04:57:56;;;;;;;13.27;12.07;;;;;;;20.57;76.51;101352.56;6032661;29;20237;-82
2022/08/20 05:01:18;;;;;;;13.30;11.90;;;;;;;20.66;76.18;101354.19;6030219;29;20234;-82
2022/08/20 05:04:39;;;;;;;11.88;10.75;;;;;;;20.67;76.41;101364.94;6035676;29;22707;-82
2022/08/20 05:08:03;;;;;;;13.23;11.93;;;;;;;20.67;76.42;101366.84;6038057;29;20441;-82
2022/08/20 05:11:24;;;;;;;12.77;11.68;;;;;;;20.57;76.37;101358.03;6032352;29;20225;-80
2022/08/20 05:14:45;;;;;;;17.50;12.63;;;;;;;20.68;76.07;101358.44;6031338;29;20245;-81
2022/08/20 05:18:08;;;;;;;14.07;12.68;;;;;;;20.70;76.14;101352.75;6032392;29;20245;-81
2022/08/20 05:21:29;;;;;;;11.15;10.25;;;;;;;20.85;75.43;101352.72;6031539;29;20230;-81
2022/08/20 05:24:52;;;;;;;13.32;12.10;;;;;;;20.72;76.28;101361.63;6039062;29;20247;-80
2022/08/20 05:28:18;;;;;;;14.05;12.75;;;;;;;20.66;76.23;101355.03;6036003;29;20530;-81
2022/08/20 05:31:40;;;;;;;11.88;10.98;;;;;;;20.65;76.55;101364.28;6033883;29;20237;-80
2022/08/20 05:35:02;;;;;;;12.50;11.40;;;;;;;20.51;77.18;101359.66;6037412;29;20241;-80
2022/08/20 05:38:25;;;;;;;13.27;10.88;;;;;;;20.83;76.72;101361.16;6036370;29;20328;-80
2022/08/20 05:41:49;;;;;;;10.73;9.82;;;;;;;21.09;75.30;101363.44;6034524;29;20309;-84
2022/08/20 05:45:10;;;;;;;11.98;10.90;;;;;;;21.12;75.24;101372.09;6040608;29;20245;-82
2022/08/20 05:48:34;;;;;;;11.07;10.10;;;;;;;21.25;74.81;101364.03;6037431;29;21771;-82
2022/08/20 05:51:55;;;;;;;10.38;9.48;;;;;;;21.48;73.79;101369.34;6038113;29;20238;-82
2022/08/20 05:55:16;;;;;;;10.57;9.68;;;;;;;21.69;73.29;101374.84;6039386;29;20222;-83
2022/08/20 05:58:39;;;;;;;12.60;11.60;;;;;;;21.30;74.54;101372.53;6036541;29;20303;-80
2022/08/20 06:02:00;;;;;;;11.65;10.65;;;;;;;21.37;74.19;101376.22;6035506;29;20253;-82
2022/08/20 06:05:20;;;;;;;8.95;8.25;;;;;;;21.49;73.55;101379.28;6036390;29;20266;-81
2022/08/20 06:08:41;;;;;;;11.80;10.82;;;;;;;21.53;73.24;101371.53;6037373;29;20230;-81
2022/08/20 06:12:05;;;;;;;11.98;10.77;;;;;;;21.29;73.93;101369.97;6035788;29;20237;-83
2022/08/20 06:15:27;;;;;;;12.93;11.70;;;;;;;21.32;74.00;101366.84;6038880;29;20624;-85
2022/08/20 06:18:49;;;;;;;8.88;8.18;;;;;;;21.19;74.42;101375.78;6036622;29;20242;-81
2022/08/20 06:22:10;;;;;;;13.07;11.88;;;;;;;20.94;75.41;101379.88;6035207;29;21020;-80
2022/08/20 06:25:33;;;;;;;12.13;10.82;;;;;;;21.01;75.42;101375.31;6034184;29;20258;-82
2022/08/20 06:28:54;;;;;;;12.70;11.50;;;;;;;21.00;75.32;101376.34;6039488;29;20230;-80
2022/08/20 06:32:18;;;;;;;10.27;9.25;;;;;;;21.07;75.24;101379.22;6039097;29;20667;-83
2022/08/20 06:35:39;;;;;;;9.02;8.23;;;;;;;21.46;73.59;101382.41;6042111;29;20226;-82
2022/08/20 06:39:00;;;;;;;8.13;7.53;;;;;;;21.69;72.68;101379.50;6042447;29;20249;-80
2022/08/20 06:42:21;;;;;;;10.80;9.82;;;;;;;21.36;74.05;101377.22;6041786;29;20294;-81
2022/08/20 06:45:42;;;;;;;11.35;10.35;;;;;;;21.26;75.02;101375.84;6032493;29;20241;-82
2022/08/20 06:49:07;;;;;;;7.68;7.07;;;;;;;21.61;73.36;101371.38;6030634;29;20238;-77
2022/08/20 06:52:28;;;;;;;8.65;7.88;;;;;;;21.71;73.21;101378.25;6039396;29;20586;-78
2022/08/20 06:55:53;;;;;;;9.02;8.23;;;;;;;22.00;72.25;101386.38;6037630;29;20368;-77
2022/08/20 06:59:14;;;;;;;9.70;8.98;;;;;;;22.26;71.69;101385.72;6038800;29;20257;-77
2022/08/20 07:02:35;;;;;;;9.40;8.50;;;;;;;22.66;70.56;101384.13;6036620;29;20502;-76
2022/08/20 07:05:58;;;;;;;6.18;5.63;;;;;;;22.80;70.14;101391.41;6038934;29;20544;-76
2022/08/20 07:09:20;;;;;;;8.18;7.47;;;;;;;22.96;69.18;101396.56;6038883;29;20237;-77
2022/08/20 07:12:41;;;;;;;5.95;5.40;;;;;;;23.19;68.85;101396.25;6039550;29;20612;-77
2022/08/20 07:16:02;;;;;;;7.28;5.45;;;;;;;22.98;68.96;101398.06;6039951;29;20237;-77
2022/08/20 07:19:23;;;;;;;6.75;6.13;;;;;;;22.86;69.37;101396.94;6038546;29;20238;-75
2022/08/20 07:22:45;;;;;;;7.57;6.75;;;;;;;23.11;68.45;101405.53;6043132;29;20238;-77
2022/08/20 07:26:07;;;;;;;5.18;4.68;;;;;;;23.60;66.32;101411.66;6038987;29;20257;-77
2022/08/20 07:32:33;;;;;;;6.30;3.75;;;;;;;23.76;65.46;101403.00;6038470;29;20521;-76
2022/08/20 07:33:08;;;;;;;4.75;4.35;;;;;;;23.49;66.22;101408.69;6033903;29;20241;-77
2022/08/20 07:36:29;;;;;;;4.82;4.43;;;;;;;23.68;65.22;101411.47;6033305;29;20336;-77
2022/08/20 07:39:52;;;;;;;5.00;4.60;;;;;;;23.66;65.38;101413.59;6030976;29;20242;-77
2022/08/20 07:43:14;;;;;;;3.55;3.22;;;;;;;23.57;65.84;101417.56;6035426;29;20312;-76
2022/08/20 07:46:35;;;;;;;5.03;4.53;;;;;;;23.26;65.93;101425.47;6034175;29;20246;-76
2022/08/20 07:49:56;;;;;;;4.22;3.40;;;;;;;23.43;65.63;101420.50;6028083;29;20328;-77
2022/08/20 07:53:17;;;;;;;4.07;3.10;;;;;;;24.15;63.45;101421.53;6031779;29;20238;-76
2022/08/20 07:56:40;;;;;;;6.13;3.47;;;;;;;24.38;62.08;101416.44;6033347;29;20238;-76
2022/08/20 08:00:01;;;;;;;6.57;3.47;;;;;;;24.46;61.89;101413.47;6034902;29;20246;-77
2022/08/20 08:03:22;;;;;;;2.78;2.33;;;;;;;24.37;61.46;101430.41;6034975;29;20214;-75
2022/08/20 08:06:44;;;;;;;5.55;3.28;;;;;;;24.28;61.53;101432.53;6016753;29;20261;-75
2022/08/20 08:10:07;;;;;;;3.40;2.92;;;;;;;24.29;61.62;101438.91;6027049;29;20234;-77
2022/08/20 08:13:34;;;;;;;3.47;2.92;;;;;;;24.28;61.61;101440.81;6043594;29;23247;-75
2022/08/20 08:16:57;;;;;;;3.08;2.70;;;;;;;24.63;59.95;101451.63;6033828;29;20298;-76
2022/08/20 08:20:21;;;;;;;8.07;3.15;;;;;;;24.85;59.15;101447.56;6028315;29;20237;-76
2022/08/20 08:23:43;;;;;;;3.85;2.80;;;;;;;25.01;58.75;101442.44;6032857;29;20366;-76
2022/08/20 08:27:04;;;;;;;2.83;2.53;;;;;;;25.03;58.54;101443.06;6031630;29;20226;-76
2022/08/20 08:30:28;;;;;;;3.20;2.88;;;;;;;24.66;59.01;101442.94;6030515;29;20231;-76
2022/08/20 08:33:49;;;;;;;3.53;3.20;;;;;;;24.72;58.95;101436.56;6031483;29;20238;-75
2022/08/20 08:37:09;;;;;;;4.00;3.10;;;;;;;24.73;59.16;101430.81;6023436;29;20360;-77
2022/08/20 08:40:32;;;;;;;2.80;2.25;;;;;;;25.32;58.17;101431.50;6024917;29;20791;-77
2022/08/20 08:43:59;;;;;;;2.42;2.22;;;;;;;25.67;56.28;101434.78;6030768;29;20341;-76
2022/08/20 08:47:28;;;;;;;4.70;3.00;;;;;;;25.62;56.31;101434.56;6020853;29;20328;-78
2022/08/20 08:50:51;;;;;;;5.45;3.45;;;;;;;25.70;55.86;101441.78;6023845;29;20312;-71
2022/08/20 08:54:16;;;;;;;3.85;1.95;;;;;;;25.66;54.33;101438.59;6018063;29;20245;-71
2022/08/20 08:57:37;;;;;;;4.72;2.22;;;;;;;25.36;54.66;101441.06;6011535;29;20248;-73
2022/08/20 09:00:58;;;;;;;5.07;2.47;;;;;;;24.68;55.67;101451.84;6018703;29;20230;-72
2022/08/20 09:04:22;;;;;;;3.90;3.53;;;;;;;24.82;55.99;101448.03;6028042;29;20233;-72
2022/08/20 09:07:46;;;;;;;2.47;2.22;;;;;;;25.43;53.52;101448.50;6027059;29;20692;-72
2022/08/20 09:11:09;;;;;;;2.97;2.58;;;;;;;25.26;53.44;101453.63;6032161;29;20242;-73
2022/08/20 09:14:30;;;;;;;3.25;2.30;;;;;;;25.19;53.67;101448.13;6033134;29;20717;-73
2022/08/20 09:17:50;;;;;;;7.45;3.00;;;;;;;25.41;54.55;101454.22;6027625;29;20234;-73
2022/08/20 09:21:13;;;;;;;4.28;2.70;;;;;;;25.33;53.14;101460.81;6028744;29;20238;-73
2022/08/20 09:24:34;;;;;;;4.38;2.17;;;;;;;25.03;54.09;101467.09;6025578;29;20226;-73
2022/08/20 09:27:55;;;;;;;5.38;2.33;;;;;;;24.89;54.95;101462.63;6025930;29;20664;-72
2022/08/20 09:31:16;;;;;;;1.85;1.60;;;;;;;24.76;55.94;101462.69;6024514;29;20237;-72
2022/08/20 09:34:38;;;;;;;3.65;1.90;;;;;;;25.04;53.98;101466.00;6024765;29;20249;-72
2022/08/20 09:38:00;;;;;;;3.08;2.20;;;;;;;24.77;52.82;101462.44;6017825;29;23782;-73
2022/08/20 09:41:21;;;;;;;3.08;2.00;;;;;;;24.78;53.34;101452.28;6026371;29;20241;-72
2022/08/20 09:44:41;;;;;;;5.25;2.65;;;;;;;25.40;52.59;101458.03;6025499;29;20230;-73
2022/08/20 09:48:03;;;;;;;4.45;2.30;;;;;;;26.05;52.25;101460.47;6036986;29;20234;-73
2022/08/20 09:51:24;;;;;;;4.18;1.90;;;;;;;26.26;51.59;101458.44;6039603;29;20513;-72
2022/08/20 09:54:47;;;;;;;5.72;2.67;;;;;;;26.07;52.35;101451.94;6039356;29;20229;-72
2022/08/20 09:58:16;;;;;;;2.72;2.00;;;;;;;26.51;49.87;101457.38;6038840;29;20226;-72
2022/08/20 10:01:37;;;;;;;4.85;2.90;;;;;;;26.27;49.58;101460.97;6035464;29;20233;-72
2022/08/20 10:04:58;;;;;;;5.47;2.58;;;;;;;26.23;50.22;101462.47;6033336;29;20340;-72
2022/08/20 10:08:19;;;;;;;9.30;4.97;;;;;;;26.15;49.85;101457.22;6037330;29;20233;-73
2022/08/20 10:11:41;;;;;;;8.20;6.63;;;;;;;26.24;49.59;101461.44;6036528;29;20242;-73
2022/08/20 10:15:02;;;;;;;4.82;3.15;;;;;;;26.79;48.39;101454.13;6025361;29;20234;-72
2022/08/20 10:18:23;;;;;;;5.93;2.22;;;;;;;26.56;49.03;101462.19;6032895;29;20616;-73
2022/08/20 10:21:44;;;;;;;6.00;2.40;;;;;;;26.56;48.84;101462.19;6031542;29;20266;-73
2022/08/20 10:25:06;;;;;;;7.65;3.28;;;;;;;27.09;48.85;101463.41;6030379;29;20234;-71
2022/08/20 10:28:28;;;;;;;2.80;2.58;;;;;;;26.91;48.82;101464.22;6031228;29;20597;-71
2022/08/20 10:31:49;;;;;;;6.28;2.50;;;;;;;27.10;48.61;101467.03;6030214;29;20245;-71
2022/08/20 10:35:11;;;;;;;4.43;2.53;;;;;;;27.57;47.77;101463.50;6026916;29;20230;-70
2022/08/20 10:38:31;;;;;;;5.95;2.47;;;;;;;27.92;46.61;101475.56;6025782;29;20273;-71
2022/08/20 10:41:53;;;;;;;5.20;2.60;;;;;;;27.72;46.41;101475.00;6031493;29;20237;-71
2022/08/20 10:45:16;;;;;;;6.18;2.97;;;;;;;27.43;47.13;101481.38;6028344;29;20225;-71
2022/08/20 10:48:37;;;;;;;7.07;3.05;;;;;;;26.48;49.77;101482.69;6028043;29;20233;-71
2022/08/20 10:51:58;;;;;;;9.10;3.42;;;;;;;26.50;49.49;101488.84;6025635;29;20230;-71
2022/08/20 10:55:20;;;;;;;5.63;2.30;;;;;;;26.57;50.25;101480.50;6024953;29;20262;-73
2022/08/20 10:58:41;;;;;;;3.78;2.13;;;;;;;25.57;50.42;101489.66;6024226;29;21597;-71
2022/08/20 11:02:03;;;;;;;2.83;1.80;;;;;;;25.83;48.92;101492.25;6025371;29;20241;-71
2022/08/20 11:05:24;;;;;;;4.90;2.15;;;;;;;25.77;48.83;101486.78;6026816;29;20693;-72
2022/08/20 11:08:45;;;;;;;6.60;2.40;;;;;;;25.39;50.39;101486.69;6028512;29;20229;-72
2022/08/20 11:12:07;;;;;;;6.32;2.78;;;;;;;25.35;51.05;101499.25;6026729;29;20241;-71
2022/08/20 11:15:28;;;;;;;10.93;3.30;;;;;;;25.72;51.02;101497.66;6036581;29;20387;-70
2022/08/20 11:18:50;;;;;;;6.95;2.88;;;;;;;25.57;50.69;101500.69;6040467;29;20707;-70
2022/08/20 11:22:11;;;;;;;4.82;2.85;;;;;;;26.14;49.65;101499.75;6043586;29;20625;-69
2022/08/20 11:25:32;;;;;;;5.32;3.25;;;;;;;25.84;50.64;101504.16;6038434;29;20249;-71
2022/08/20 11:28:53;;;;;;;4.88;2.70;;;;;;;26.12;49.98;101499.13;6043751;29;20245;-71
2022/08/20 11:32:14;;;;;;;6.65;2.65;;;;;;;26.13;49.42;101503.59;6036922;29;20321;-71
2022/08/20 11:35:37;;;;;;;5.22;2.13;;;;;;;26.05;49.43;101498.31;6040609;29;20234;-72
2022/08/20 11:38:58;;;;;;;5.85;2.78;;;;;;;25.86;48.97;101494.59;6034106;29;20630;-71
2022/08/20 11:42:19;;;;;;;6.85;3.10;;;;;;;26.18;49.24;101495.47;6036989;29;20229;-71
2022/08/20 11:45:40;;;;;;;3.88;1.90;;;;;;;26.68;48.04;101496.38;6035099;29;20238;-72
2022/08/20 11:49:01;;;;;;;4.50;2.30;;;;;;;26.73;45.91;101496.56;6037295;29;20321;-70
2022/08/20 11:52:24;;;;;;;6.40;1.83;;;;;;;26.56;46.10;101495.41;6039714;29;20234;-70
2022/08/20 11:55:44;;;;;;;3.25;2.00;;;;;;;26.29;46.28;101500.28;6039054;29;20485;-71
2022/08/20 11:59:05;;;;;;;4.88;2.58;;;;;;;26.66;44.37;101498.53;6041774;29;20222;-70
2022/08/20 12:02:27;;;;;;;7.55;2.20;;;;;;;27.47;44.42;101505.56;6035828;29;20821;-71
2022/08/20 12:05:48;;;;;;;4.07;1.90;;;;;;;28.38;42.05;101497.09;6034684;29;20628;-71
2022/08/20 12:09:11;;;;;;;4.50;1.85;;;;;;;28.06;43.30;101502.06;6033171;29;20245;-70
2022/08/20 12:12:32;;;;;;;4.63;1.98;;;;;;;28.51;41.43;101507.97;6039370;29;20238;-72
2022/08/20 12:15:54;;;;;;;5.85;2.00;;;;;;;29.89;38.08;101495.13;6034765;29;20233;-71
2022/08/20 12:19:15;;;;;;;6.35;1.90;;;;;;;33.12;32.00;101501.19;6035960;29;20651;-71
2022/08/20 12:22:36;;;;;;;6.40;2.40;;;;;;;34.16;29.63;101501.97;6032883;29;20269;-71
2022/08/20 12:26:01;;;;;;;4.13;2.05;;;;;;;34.53;29.30;101504.53;6028168;29;20234;-68
2022/08/20 12:29:24;;;;;;;10.20;2.38;;;;;;;35.19;26.40;101505.38;6032748;29;20233;-70
2022/08/20 12:32:46;;;;;;;2.55;1.48;;;;;;;36.51;25.46;101496.03;6033583;29;20579;-69
2022/08/20 12:36:07;;;;;;;5.25;2.20;;;;;;;34.91;27.32;101498.38;6037179;29;20245;-67
2022/08/20 12:39:30;;;;;;;6.05;1.52;;;;;;;33.33;28.84;101499.34;6029529;29;20237;-69
2022/08/20 12:42:53;;;;;;;2.70;1.52;;;;;;;31.65;31.49;101503.59;6033135;29;20230;-69
2022/08/20 12:46:14;;;;;;;7.35;3.75;;;;;;;31.44;32.47;101504.44;6035023;29;20237;-69
2022/08/20 12:49:35;;;;;;;5.25;2.78;;;;;;;31.58;31.82;101504.91;6034117;29;20253;-69
2022/08/20 12:52:56;;;;;;;4.13;2.35;;;;;;;31.61;31.03;101513.59;6034202;29;20671;-69
2022/08/20 12:56:17;;;;;;;5.07;1.85;;;;;;;33.59;29.25;101506.78;6034365;29;20313;-68
2022/08/20 12:59:40;;;;;;;6.03;2.38;;;;;;;33.32;29.03;101511.63;6031556;29;20234;-69
2022/08/20 13:03:03;;;;;;;1.80;1.10;;;;;;;32.96;28.21;101505.78;6034701;29;20238;-68
2022/08/20 13:06:24;;;;;;;3.65;1.90;;;;;;;35.21;27.37;101514.34;6030820;29;20238;-68
2022/08/20 13:09:45;;;;;;;6.93;2.38;;;;;;;35.54;24.82;101502.47;6033805;29;22412;-69
2022/08/20 13:13:06;;;;;;;4.85;3.58;;;;;;;35.15;26.77;101499.47;6028608;29;20233;-69
2022/08/20 13:16:28;;;;;;;5.55;4.10;;;;;;;35.73;25.46;101511.94;6022565;29;20628;-68
2022/08/20 13:19:49;;;;;;;4.10;1.33;;;;;;;34.33;26.78;101501.69;6028218;29;20234;-69
2022/08/20 13:23:10;;;;;;;2.30;1.42;;;;;;;32.80;29.06;101506.81;6030638;29;20245;-69
2022/08/20 13:26:31;;;;;;;3.53;2.00;;;;;;;34.08;27.81;101504.47;6034806;29;20238;-68
2022/08/20 13:29:53;;;;;;;3.47;1.48;;;;;;;32.64;29.97;101516.19;6030617;29;20265;-69
2022/08/20 13:33:16;;;;;;;4.53;1.70;;;;;;;34.27;27.96;101509.28;6035297;29;20242;-69
2022/08/20 13:36:37;;;;;;;4.13;1.38;;;;;;;33.89;27.31;101511.66;6040488;29;20234;-69
2022/08/20 13:40:00;;;;;;;4.75;1.58;;;;;;;35.47;26.02;101512.31;6047917;29;20229;-68
2022/08/20 13:43:21;;;;;;;2.65;1.40;;;;;;;35.25;26.67;101510.69;6040892;29;20245;-68
2022/08/20 13:46:41;;;;;;;4.38;1.67;;;;;;;32.95;30.13;101498.53;6042093;29;20242;-68
2022/08/20 13:50:08;;;;;;;3.75;1.50;;;;;;;30.57;34.17;101503.34;6039539;29;20233;-69
2022/08/20 13:53:29;;;;;;;3.38;1.80;;;;;;;31.86;32.64;101499.13;6034244;29;20233;-68
2022/08/20 13:56:50;;;;;;;3.38;1.70;;;;;;;34.86;27.66;101492.75;6036932;29;20242;-67
2022/08/20 14:00:15;;;;;;;3.55;1.52;;;;;;;34.74;27.40;101495.00;6033329;29;20668;-67
2022/08/20 14:03:36;;;;;;;2.38;1.27;;;;;;;33.73;28.21;101489.19;6026769;29;20414;-69
2022/08/20 14:06:58;;;;;;;5.57;1.77;;;;;;;33.44;29.17;101492.72;6033265;29;20249;-69
2022/08/20 14:10:30;;;;;;;2.85;1.50;;;;;;;33.41;29.07;101496.03;6018190;29;20234;-69
2022/08/20 14:13:50;;;;;;;6.05;2.17;;;;;;;32.37;29.73;101501.38;6029668;29;20334;-70
2022/08/20 14:17:17;;;;;;;2.95;1.77;;;;;;;31.23;31.90;101481.00;6026866;29;20372;-70
2022/08/20 14:20:38;;;;;;;6.40;2.38;;;;;;;31.27;31.95;101489.72;6019890;29;20624;-70
2022/08/20 14:24:01;;;;;;;3.55;1.45;;;;;;;30.56;32.72;101490.53;6018677;29;21029;-69
2022/08/20 14:27:23;;;;;;;5.15;1.95;;;;;;;29.79;34.31;101501.28;6034116;29;20238;-70
2022/08/20 14:30:45;;;;;;;5.35;1.98;;;;;;;29.47;34.93;101502.81;6036043;29;20242;-70
2022/08/20 14:34:06;;;;;;;6.28;1.83;;;;;;;29.52;33.92;101502.09;6039640;29;20234;-70
2022/08/20 14:37:29;;;;;;;3.47;1.80;;;;;;;29.34;33.61;101505.88;6045769;29;20237;-70
2022/08/20 14:40:51;;;;;;;6.63;1.40;;;;;;;28.94;33.77;101514.06;6045191;29;20242;-70
2022/08/20 14:44:12;;;;;;;2.92;1.55;;;;;;;28.65;34.31;101517.78;6038814;29;20317;-71
2022/08/20 14:47:35;;;;;;;8.57;4.75;;;;;;;28.97;34.23;101516.38;6045535;29;20687;-71
2022/08/20 14:50:58;;;;;;;3.10;1.60;;;;;;;29.25;33.96;101512.06;6008259;29;1098961;-72
2022/08/20 14:54:19;;;;;;;5.35;1.60;;;;;;;29.22;32.85;101513.38;6049166;29;20249;-71
2022/08/20 14:57:42;;;;;;;4.15;2.05;;;;;;;29.43;33.17;101511.91;6048650;29;20592;-71
2022/08/20 15:01:03;;;;;;;4.78;2.03;;;;;;;28.46;33.83;101525.34;6042712;29;20814;-71
2022/08/20 15:04:24;;;;;;;6.70;2.55;;;;;;;28.56;33.86;101518.38;6049618;29;20581;-71
2022/08/20 15:07:47;;;;;;;5.47;3.00;;;;;;;28.19;33.89;101524.06;6047424;29;20296;-71
2022/08/20 15:11:08;;;;;;;5.80;4.47;;;;;;;28.23;34.53;101516.09;6047922;29;20226;-71
2022/08/20 15:14:31;;;;;;;4.80;3.72;;;;;;;28.57;34.06;101515.38;6045819;29;20233;-71
2022/08/20 15:17:53;;;;;;;5.47;1.67;;;;;;;29.00;33.15;101509.47;6044517;29;20238;-70
2022/08/20 15:21:14;;;;;;;3.45;1.52;;;;;;;28.78;33.13;101528.69;6045438;29;20230;-71
2022/08/20 15:24:35;;;;;;;2.83;2.20;;;;;;;28.48;33.38;101531.50;6038286;29;20237;-70
2022/08/20 15:27:57;;;;;;;4.22;1.55;;;;;;;28.50;33.73;101524.88;6040500;29;20221;-71
2022/08/20 15:31:20;;;;;;;3.55;2.10;;;;;;;28.74;33.76;101523.84;6045812;29;20547;-72
2022/08/20 15:34:41;;;;;;;3.97;1.90;;;;;;;28.39;33.84;101538.44;6045929;29;20230;-70